sensor_id;sensor_type;location;lat;lon;timestamp;temperature;humidity
19555;DHT22;9924;50.828;6.440;2022-08-03T00:01:41;20.30;99.90
19555;DHT22;9924;50.828;6.440;2022-08-03T00:04:09;20.30;99.90
19555;DHT22;9924;50.828;6.440;2022-08-03T00:06:35;20.30;99.90
19555;DHT22;9924;50.828;6.440;2022-08-03T00:09:03;20.30;99.90
19555;DHT22;9924;50.828;6.440;2022-08-03T00:11:31;20.20;99.90
19555;DHT22;9924;50.828;6.440;2022-08-03T00:13:57;20.20;99.90
19555;DHT22;9924;50.828;6.440;2022-08-03T00:16:23;20.20;99.90
19555;DHT22;9924;50.828;6.440;2022-08-03T00:18:50;20.10;99.90
19555;DHT22;9924;50.828;6.440;2022-08-03T00:21:15;20.10;99.90
19555;DHT22;9924;50.828;6.440;2022-08-03T00:23:41;20.10;99.90
19555;DHT22;9924;50.828;6.440;2022-08-03T00:26:07;20.00;99.90
19555;DHT22;9924;50.828;6.440;2022-08-03T00:28:33;20.00;99.90
19555;DHT22;9924;50.828;6.440;2022-08-03T00:30:59;20.00;99.90
19555;DHT22;9924;50.828;6.440;2022-08-03T00:33:24;20.00;99.90
19555;DHT22;9924;50.828;6.440;2022-08-03T00:35:51;19.90;99.90
19555;DHT22;9924;50.828;6.440;2022-08-03T00:38:17;19.80;99.90
19555;DHT22;9924;50.828;6.440;2022-08-03T00:40:44;19.80;99.90
19555;DHT22;9924;50.828;6.440;2022-08-03T00:43:09;19.70;99.90
19555;DHT22;9924;50.828;6.440;2022-08-03T00:45:38;19.70;99.90
19555;DHT22;9924;50.828;6.440;2022-08-03T00:48:05;19.70;99.90
19555;DHT22;9924;50.828;6.440;2022-08-03T00:50:34;19.70;99.90
19555;DHT22;9924;50.828;6.440;2022-08-03T00:53:02;19.70;99.90
19555;DHT22;9924;50.828;6.440;2022-08-03T00:55:29;19.70;99.90
19555;DHT22;9924;50.828;6.440;2022-08-03T00:57:55;19.70;99.90
19555;DHT22;9924;50.828;6.440;2022-08-03T01:00:24;19.60;99.90
19555;DHT22;9924;50.828;6.440;2022-08-03T01:02:50;19.60;99.90
19555;DHT22;9924;50.828;6.440;2022-08-03T01:05:17;19.60;99.90
19555;DHT22;9924;50.828;6.440;2022-08-03T01:13:03;19.50;99.90
19555;DHT22;9924;50.828;6.440;2022-08-03T01:15:41;19.60;99.90
19555;DHT22;9924;50.828;6.440;2022-08-03T01:18:16;19.50;99.90
19555;DHT22;9924;50.828;6.440;2022-08-03T01:20:47;19.50;99.90
19555;DHT22;9924;50.828;6.440;2022-08-03T01:31:42;19.50;99.90
19555;DHT22;9924;50.828;6.440;2022-08-03T01:34:11;19.50;99.90
19555;DHT22;9924;50.828;6.440;2022-08-03T01:36:43;19.40;99.90
19555;DHT22;9924;50.828;6.440;2022-08-03T01:39:15;19.30;99.90
19555;DHT22;9924;50.828;6.440;2022-08-03T01:41:48;19.30;99.90
19555;DHT22;9924;50.828;6.440;2022-08-03T01:44:15;19.20;99.90
19555;DHT22;9924;50.828;6.440;2022-08-03T01:46:42;19.10;99.90
19555;DHT22;9924;50.828;6.440;2022-08-03T01:49:10;19.10;99.90
19555;DHT22;9924;50.828;6.440;2022-08-03T01:51:41;19.10;99.90
19555;DHT22;9924;50.828;6.440;2022-08-03T01:54:10;19.20;99.90
19555;DHT22;9924;50.828;6.440;2022-08-03T01:56:37;19.20;99.90
19555;DHT22;9924;50.828;6.440;2022-08-03T01:59:05;19.20;99.90
19555;DHT22;9924;50.828;6.440;2022-08-03T02:01:32;19.20;99.90
19555;DHT22;9924;50.828;6.440;2022-08-03T02:03:59;19.20;99.90
19555;DHT22;9924;50.828;6.440;2022-08-03T02:06:28;19.10;99.90
19555;DHT22;9924;50.828;6.440;2022-08-03T02:08:54;19.10;99.90
19555;DHT22;9924;50.828;6.440;2022-08-03T02:11:21;19.10;99.90
19555;DHT22;9924;50.828;6.440;2022-08-03T02:13:50;19.10;99.90
19555;DHT22;9924;50.828;6.440;2022-08-03T02:16:17;19.00;99.90
19555;DHT22;9924;50.828;6.440;2022-08-03T02:18:44;19.00;99.90
19555;DHT22;9924;50.828;6.440;2022-08-03T02:21:12;18.90;99.90
19555;DHT22;9924;50.828;6.440;2022-08-03T02:23:39;18.90;99.90
19555;DHT22;9924;50.828;6.440;2022-08-03T02:26:09;18.90;99.90
19555;DHT22;9924;50.828;6.440;2022-08-03T02:28:41;18.90;99.90
19555;DHT22;9924;50.828;6.440;2022-08-03T02:31:17;18.90;99.90
19555;DHT22;9924;50.828;6.440;2022-08-03T02:33:49;18.90;99.90
19555;DHT22;9924;50.828;6.440;2022-08-03T02:36:19;19.00;99.90
19555;DHT22;9924;50.828;6.440;2022-08-03T02:38:49;19.00;99.90
19555;DHT22;9924;50.828;6.440;2022-08-03T02:41:21;19.00;99.90
19555;DHT22;9924;50.828;6.440;2022-08-03T02:43:50;18.90;99.90
19555;DHT22;9924;50.828;6.440;2022-08-03T02:46:19;18.90;99.90
19555;DHT22;9924;50.828;6.440;2022-08-03T02:48:47;18.80;99.90
19555;DHT22;9924;50.828;6.440;2022-08-03T02:51:18;18.80;99.90
19555;DHT22;9924;50.828;6.440;2022-08-03T02:53:45;18.80;99.90
19555;DHT22;9924;50.828;6.440;2022-08-03T02:56:12;18.70;99.90
19555;DHT22;9924;50.828;6.440;2022-08-03T02:58:42;18.60;99.90
19555;DHT22;9924;50.828;6.440;2022-08-03T03:01:09;18.50;99.90
19555;DHT22;9924;50.828;6.440;2022-08-03T03:03:35;18.40;99.90
19555;DHT22;9924;50.828;6.440;2022-08-03T03:06:02;18.30;99.90
19555;DHT22;9924;50.828;6.440;2022-08-03T03:08:29;18.20;99.90
19555;DHT22;9924;50.828;6.440;2022-08-03T03:10:57;18.20;99.90
19555;DHT22;9924;50.828;6.440;2022-08-03T03:13:24;18.20;99.90
19555;DHT22;9924;50.828;6.440;2022-08-03T03:15:51;18.10;99.90
19555;DHT22;9924;50.828;6.440;2022-08-03T03:18:19;18.00;99.90
19555;DHT22;9924;50.828;6.440;2022-08-03T03:20:46;18.10;99.90
19555;DHT22;9924;50.828;6.440;2022-08-03T03:23:14;18.10;99.90
19555;DHT22;9924;50.828;6.440;2022-08-03T03:25:42;18.10;99.90
19555;DHT22;9924;50.828;6.440;2022-08-03T03:28:09;18.10;99.90
19555;DHT22;9924;50.828;6.440;2022-08-03T03:30:35;18.00;99.90
19555;DHT22;9924;50.828;6.440;2022-08-03T03:33:01;18.10;99.90
19555;DHT22;9924;50.828;6.440;2022-08-03T03:35:27;18.20;99.90
19555;DHT22;9924;50.828;6.440;2022-08-03T03:37:53;18.30;99.90
19555;DHT22;9924;50.828;6.440;2022-08-03T03:40:20;18.30;99.90
19555;DHT22;9924;50.828;6.440;2022-08-03T03:42:46;18.30;99.90
19555;DHT22;9924;50.828;6.440;2022-08-03T03:45:12;18.20;99.90
19555;DHT22;9924;50.828;6.440;2022-08-03T03:47:38;18.10;99.90
19555;DHT22;9924;50.828;6.440;2022-08-03T03:50:05;18.10;99.90
19555;DHT22;9924;50.828;6.440;2022-08-03T03:52:31;18.10;99.90
19555;DHT22;9924;50.828;6.440;2022-08-03T03:54:57;18.00;99.90
19555;DHT22;9924;50.828;6.440;2022-08-03T03:57:23;18.00;99.90
19555;DHT22;9924;50.828;6.440;2022-08-03T03:59:49;17.90;99.90
19555;DHT22;9924;50.828;6.440;2022-08-03T04:02:15;17.90;99.90
19555;DHT22;9924;50.828;6.440;2022-08-03T04:04:41;18.00;99.90
19555;DHT22;9924;50.828;6.440;2022-08-03T04:07:26;17.90;99.90
19555;DHT22;9924;50.828;6.440;2022-08-03T04:10:19;17.90;99.90
19555;DHT22;9924;50.828;6.440;2022-08-03T04:13:08;17.90;99.90
19555;DHT22;9924;50.828;6.440;2022-08-03T04:15:37;17.90;99.90
19555;DHT22;9924;50.828;6.440;2022-08-03T04:18:06;17.80;99.90
19555;DHT22;9924;50.828;6.440;2022-08-03T04:20:36;17.70;99.90
19555;DHT22;9924;50.828;6.440;2022-08-03T04:23:03;17.70;99.90
19555;DHT22;9924;50.828;6.440;2022-08-03T04:25:32;17.60;99.90
19555;DHT22;9924;50.828;6.440;2022-08-03T04:28:02;17.40;99.90
19555;DHT22;9924;50.828;6.440;2022-08-03T04:30:29;17.40;99.90
19555;DHT22;9924;50.828;6.440;2022-08-03T04:32:56;17.40;99.90
19555;DHT22;9924;50.828;6.440;2022-08-03T04:35:24;17.50;99.90
19555;DHT22;9924;50.828;6.440;2022-08-03T04:37:54;17.50;99.90
19555;DHT22;9924;50.828;6.440;2022-08-03T04:40:31;17.60;99.90
19555;DHT22;9924;50.828;6.440;2022-08-03T04:42:58;17.60;99.90
19555;DHT22;9924;50.828;6.440;2022-08-03T04:45:26;17.70;99.90
19555;DHT22;9924;50.828;6.440;2022-08-03T04:47:52;17.70;99.90
19555;DHT22;9924;50.828;6.440;2022-08-03T04:50:19;17.80;99.90
19555;DHT22;9924;50.828;6.440;2022-08-03T04:52:46;17.90;99.90
19555;DHT22;9924;50.828;6.440;2022-08-03T04:55:12;17.90;99.90
19555;DHT22;9924;50.828;6.440;2022-08-03T04:57:49;18.10;99.90
19555;DHT22;9924;50.828;6.440;2022-08-03T05:00:15;18.10;99.90
19555;DHT22;9924;50.828;6.440;2022-08-03T05:02:42;18.20;99.90
19555;DHT22;9924;50.828;6.440;2022-08-03T05:05:08;18.20;99.90
19555;DHT22;9924;50.828;6.440;2022-08-03T05:07:34;18.40;99.90
19555;DHT22;9924;50.828;6.440;2022-08-03T05:10:00;18.50;99.90
19555;DHT22;9924;50.828;6.440;2022-08-03T05:12:26;18.60;99.90
19555;DHT22;9924;50.828;6.440;2022-08-03T05:14:52;18.70;99.90
19555;DHT22;9924;50.828;6.440;2022-08-03T05:17:17;18.70;99.90
19555;DHT22;9924;50.828;6.440;2022-08-03T05:19:44;18.80;99.90
19555;DHT22;9924;50.828;6.440;2022-08-03T05:22:09;19.00;99.90
19555;DHT22;9924;50.828;6.440;2022-08-03T05:24:35;19.10;99.90
19555;DHT22;9924;50.828;6.440;2022-08-03T05:27:01;19.30;99.90
19555;DHT22;9924;50.828;6.440;2022-08-03T05:29:26;19.40;99.90
19555;DHT22;9924;50.828;6.440;2022-08-03T05:31:52;19.60;99.90
19555;DHT22;9924;50.828;6.440;2022-08-03T05:34:18;19.70;99.90
19555;DHT22;9924;50.828;6.440;2022-08-03T05:36:44;19.80;99.90
19555;DHT22;9924;50.828;6.440;2022-08-03T05:39:10;20.00;99.90
19555;DHT22;9924;50.828;6.440;2022-08-03T05:41:36;20.10;99.90
19555;DHT22;9924;50.828;6.440;2022-08-03T05:44:02;20.20;99.90
19555;DHT22;9924;50.828;6.440;2022-08-03T05:46:28;20.40;99.90
19555;DHT22;9924;50.828;6.440;2022-08-03T05:48:54;20.50;99.90
19555;DHT22;9924;50.828;6.440;2022-08-03T05:51:20;20.70;99.90
19555;DHT22;9924;50.828;6.440;2022-08-03T05:53:49;20.90;99.90
19555;DHT22;9924;50.828;6.440;2022-08-03T05:56:15;21.00;99.90
19555;DHT22;9924;50.828;6.440;2022-08-03T05:58:42;21.10;99.90
19555;DHT22;9924;50.828;6.440;2022-08-03T06:01:08;21.10;99.90
19555;DHT22;9924;50.828;6.440;2022-08-03T06:03:34;21.30;99.90
19555;DHT22;9924;50.828;6.440;2022-08-03T06:06:00;21.40;99.90
19555;DHT22;9924;50.828;6.440;2022-08-03T06:08:26;21.50;99.90
19555;DHT22;9924;50.828;6.440;2022-08-03T06:10:52;21.70;99.90
19555;DHT22;9924;50.828;6.440;2022-08-03T06:13:18;21.90;99.90
19555;DHT22;9924;50.828;6.440;2022-08-03T06:15:44;22.20;99.90
19555;DHT22;9924;50.828;6.440;2022-08-03T06:18:10;22.50;99.90
19555;DHT22;9924;50.828;6.440;2022-08-03T06:20:35;22.90;99.90
19555;DHT22;9924;50.828;6.440;2022-08-03T06:23:01;23.30;99.90
19555;DHT22;9924;50.828;6.440;2022-08-03T06:25:27;23.70;99.90
19555;DHT22;9924;50.828;6.440;2022-08-03T06:27:53;24.10;99.90
19555;DHT22;9924;50.828;6.440;2022-08-03T06:30:19;24.50;99.90
19555;DHT22;9924;50.828;6.440;2022-08-03T06:32:45;24.90;99.90
19555;DHT22;9924;50.828;6.440;2022-08-03T06:35:14;25.30;99.90
19555;DHT22;9924;50.828;6.440;2022-08-03T06:37:42;25.70;99.90
19555;DHT22;9924;50.828;6.440;2022-08-03T06:40:14;26.10;99.90
19555;DHT22;9924;50.828;6.440;2022-08-03T06:42:41;26.40;99.90
19555;DHT22;9924;50.828;6.440;2022-08-03T06:45:07;26.60;99.90
19555;DHT22;9924;50.828;6.440;2022-08-03T06:47:35;26.80;99.90
19555;DHT22;9924;50.828;6.440;2022-08-03T06:50:01;27.00;99.90
19555;DHT22;9924;50.828;6.440;2022-08-03T06:52:28;27.10;99.90
19555;DHT22;9924;50.828;6.440;2022-08-03T06:54:54;27.20;99.90
19555;DHT22;9924;50.828;6.440;2022-08-03T06:57:20;27.40;99.90
19555;DHT22;9924;50.828;6.440;2022-08-03T06:59:46;27.60;99.90
19555;DHT22;9924;50.828;6.440;2022-08-03T07:02:12;27.90;99.90
19555;DHT22;9924;50.828;6.440;2022-08-03T07:04:38;28.10;99.90
19555;DHT22;9924;50.828;6.440;2022-08-03T07:07:04;28.20;99.90
19555;DHT22;9924;50.828;6.440;2022-08-03T07:09:30;28.20;99.90
19555;DHT22;9924;50.828;6.440;2022-08-03T07:11:56;28.30;99.90
19555;DHT22;9924;50.828;6.440;2022-08-03T07:14:23;28.30;99.90
19555;DHT22;9924;50.828;6.440;2022-08-03T07:16:49;28.40;99.90
19555;DHT22;9924;50.828;6.440;2022-08-03T07:19:15;28.70;99.90
19555;DHT22;9924;50.828;6.440;2022-08-03T07:21:40;28.90;99.90
19555;DHT22;9924;50.828;6.440;2022-08-03T07:24:06;29.10;99.90
19555;DHT22;9924;50.828;6.440;2022-08-03T07:26:38;29.00;99.90
19555;DHT22;9924;50.828;6.440;2022-08-03T07:29:04;29.00;99.90
19555;DHT22;9924;50.828;6.440;2022-08-03T07:31:30;29.10;99.90
19555;DHT22;9924;50.828;6.440;2022-08-03T07:33:55;29.30;99.90
19555;DHT22;9924;50.828;6.440;2022-08-03T07:36:21;29.40;99.90
19555;DHT22;9924;50.828;6.440;2022-08-03T07:38:49;29.50;99.90
19555;DHT22;9924;50.828;6.440;2022-08-03T07:41:15;29.60;99.90
19555;DHT22;9924;50.828;6.440;2022-08-03T07:43:41;29.50;99.90
19555;DHT22;9924;50.828;6.440;2022-08-03T07:46:07;29.50;99.90
19555;DHT22;9924;50.828;6.440;2022-08-03T07:48:33;29.90;99.90
19555;DHT22;9924;50.828;6.440;2022-08-03T07:50:58;30.20;99.90
19555;DHT22;9924;50.828;6.440;2022-08-03T07:53:24;30.40;99.90
19555;DHT22;9924;50.828;6.440;2022-08-03T07:55:50;30.60;99.90
19555;DHT22;9924;50.828;6.440;2022-08-03T07:58:16;30.80;99.90
19555;DHT22;9924;50.828;6.440;2022-08-03T08:00:43;31.00;99.90
19555;DHT22;9924;50.828;6.440;2022-08-03T08:03:11;31.00;99.90
19555;DHT22;9924;50.828;6.440;2022-08-03T08:05:38;31.00;99.90
19555;DHT22;9924;50.828;6.440;2022-08-03T08:08:04;31.30;99.90
19555;DHT22;9924;50.828;6.440;2022-08-03T08:10:30;31.40;99.90
19555;DHT22;9924;50.828;6.440;2022-08-03T08:12:57;31.50;99.60
19555;DHT22;9924;50.828;6.440;2022-08-03T08:15:23;31.70;99.40
19555;DHT22;9924;50.828;6.440;2022-08-03T08:17:51;31.70;98.80
19555;DHT22;9924;50.828;6.440;2022-08-03T08:20:24;31.50;98.70
19555;DHT22;9924;50.828;6.440;2022-08-03T08:22:50;31.60;98.30
19555;DHT22;9924;50.828;6.440;2022-08-03T08:25:16;31.80;98.40
19555;DHT22;9924;50.828;6.440;2022-08-03T08:27:47;32.00;98.30
19555;DHT22;9924;50.828;6.440;2022-08-03T08:30:14;32.20;98.50
19555;DHT22;9924;50.828;6.440;2022-08-03T08:32:41;32.30;97.80
19555;DHT22;9924;50.828;6.440;2022-08-03T08:35:07;32.40;98.30
19555;DHT22;9924;50.828;6.440;2022-08-03T08:37:33;32.40;98.00
19555;DHT22;9924;50.828;6.440;2022-08-03T08:40:00;32.60;98.20
19555;DHT22;9924;50.828;6.440;2022-08-03T08:42:26;32.70;97.80
19555;DHT22;9924;50.828;6.440;2022-08-03T08:44:52;32.80;96.80
19555;DHT22;9924;50.828;6.440;2022-08-03T08:47:18;32.90;97.30
19555;DHT22;9924;50.828;6.440;2022-08-03T08:49:47;32.90;97.00
19555;DHT22;9924;50.828;6.440;2022-08-03T08:52:20;32.80;96.30
19555;DHT22;9924;50.828;6.440;2022-08-03T08:54:48;32.60;96.10
19555;DHT22;9924;50.828;6.440;2022-08-03T08:57:15;32.70;96.30
19555;DHT22;9924;50.828;6.440;2022-08-03T08:59:43;33.00;95.80
19555;DHT22;9924;50.828;6.440;2022-08-03T09:02:09;33.00;96.00
19555;DHT22;9924;50.828;6.440;2022-08-03T09:04:37;33.00;96.60
19555;DHT22;9924;50.828;6.440;2022-08-03T09:07:03;33.30;96.40
19555;DHT22;9924;50.828;6.440;2022-08-03T09:09:31;33.40;95.50
19555;DHT22;9924;50.828;6.440;2022-08-03T09:11:56;33.40;94.20
19555;DHT22;9924;50.828;6.440;2022-08-03T09:14:22;33.60;94.70
19555;DHT22;9924;50.828;6.440;2022-08-03T09:16:56;33.40;94.50
19555;DHT22;9924;50.828;6.440;2022-08-03T09:19:27;33.50;93.70
19555;DHT22;9924;50.828;6.440;2022-08-03T09:22:14;33.40;94.00
19555;DHT22;9924;50.828;6.440;2022-08-03T09:25:04;33.40;94.10
19555;DHT22;9924;50.828;6.440;2022-08-03T09:27:42;33.70;93.50
19555;DHT22;9924;50.828;6.440;2022-08-03T09:30:16;33.80;93.70
19555;DHT22;9924;50.828;6.440;2022-08-03T09:32:42;33.90;93.10
19555;DHT22;9924;50.828;6.440;2022-08-03T09:35:11;34.00;93.30
19555;DHT22;9924;50.828;6.440;2022-08-03T09:37:38;33.90;92.50
19555;DHT22;9924;50.828;6.440;2022-08-03T09:40:04;33.60;93.30
19555;DHT22;9924;50.828;6.440;2022-08-03T09:42:30;33.50;93.10
19555;DHT22;9924;50.828;6.440;2022-08-03T09:44:59;33.50;92.90
19555;DHT22;9924;50.828;6.440;2022-08-03T09:47:31;33.70;93.30
19555;DHT22;9924;50.828;6.440;2022-08-03T09:50:00;33.40;92.60
19555;DHT22;9924;50.828;6.440;2022-08-03T09:52:36;33.60;92.70
19555;DHT22;9924;50.828;6.440;2022-08-03T09:55:10;33.90;92.30
19555;DHT22;9924;50.828;6.440;2022-08-03T09:57:36;34.10;92.30
19555;DHT22;9924;50.828;6.440;2022-08-03T10:00:13;33.90;92.40
19555;DHT22;9924;50.828;6.440;2022-08-03T10:02:41;33.90;92.30
19555;DHT22;9924;50.828;6.440;2022-08-03T10:05:09;33.90;92.20
19555;DHT22;9924;50.828;6.440;2022-08-03T10:07:46;34.10;92.50
19555;DHT22;9924;50.828;6.440;2022-08-03T10:10:12;34.40;91.10
19555;DHT22;9924;50.828;6.440;2022-08-03T10:12:40;34.70;91.20
19555;DHT22;9924;50.828;6.440;2022-08-03T10:15:07;35.10;90.80
19555;DHT22;9924;50.828;6.440;2022-08-03T10:17:34;35.30;90.60
19555;DHT22;9924;50.828;6.440;2022-08-03T10:20:00;35.30;90.30
19555;DHT22;9924;50.828;6.440;2022-08-03T10:22:27;35.20;90.30
19555;DHT22;9924;50.828;6.440;2022-08-03T10:25:06;35.10;90.20
19555;DHT22;9924;50.828;6.440;2022-08-03T10:27:35;35.00;90.00
19555;DHT22;9924;50.828;6.440;2022-08-03T10:30:08;34.60;89.50
19555;DHT22;9924;50.828;6.440;2022-08-03T10:35:10;34.70;90.30
19555;DHT22;9924;50.828;6.440;2022-08-03T10:37:41;34.80;90.70
19555;DHT22;9924;50.828;6.440;2022-08-03T10:40:13;34.70;89.60
19555;DHT22;9924;50.828;6.440;2022-08-03T10:42:41;34.80;90.00
19555;DHT22;9924;50.828;6.440;2022-08-03T10:45:19;35.10;89.80
19555;DHT22;9924;50.828;6.440;2022-08-03T10:47:46;35.20;88.00
19555;DHT22;9924;50.828;6.440;2022-08-03T10:50:13;35.40;87.70
19555;DHT22;9924;50.828;6.440;2022-08-03T10:53:00;35.40;87.70
19555;DHT22;9924;50.828;6.440;2022-08-03T10:55:39;35.20;89.10
19555;DHT22;9924;50.828;6.440;2022-08-03T11:01:11;34.90;89.60
19555;DHT22;9924;50.828;6.440;2022-08-03T11:06:24;34.90;87.80
19555;DHT22;9924;50.828;6.440;2022-08-03T11:11:37;35.50;88.80
19555;DHT22;9924;50.828;6.440;2022-08-03T11:14:12;35.60;86.40
19555;DHT22;9924;50.828;6.440;2022-08-03T11:16:41;35.70;85.50
19555;DHT22;9924;50.828;6.440;2022-08-03T11:19:11;35.70;86.50
19555;DHT22;9924;50.828;6.440;2022-08-03T11:29:56;36.30;85.20
19555;DHT22;9924;50.828;6.440;2022-08-03T11:35:20;36.50;84.10
19555;DHT22;9924;50.828;6.440;2022-08-03T11:45:36;36.70;82.70
19555;DHT22;9924;50.828;6.440;2022-08-03T11:48:13;36.70;81.80
19555;DHT22;9924;50.828;6.440;2022-08-03T11:50:40;36.70;82.10
19555;DHT22;9924;50.828;6.440;2022-08-03T11:53:13;36.60;83.30
19555;DHT22;9924;50.828;6.440;2022-08-03T11:55:40;36.30;82.00
19555;DHT22;9924;50.828;6.440;2022-08-03T11:58:07;36.50;82.40
19555;DHT22;9924;50.828;6.440;2022-08-03T12:00:33;37.00;81.10
19555;DHT22;9924;50.828;6.440;2022-08-03T15:42:21;35.30;73.10
19555;DHT22;9924;50.828;6.440;2022-08-03T15:44:47;36.40;72.70
19555;DHT22;9924;50.828;6.440;2022-08-03T15:47:13;37.20;70.40
19555;DHT22;9924;50.828;6.440;2022-08-03T15:49:39;37.70;69.70
19555;DHT22;9924;50.828;6.440;2022-08-03T15:52:05;37.80;68.90
19555;DHT22;9924;50.828;6.440;2022-08-03T15:54:31;37.60;69.80
19555;DHT22;9924;50.828;6.440;2022-08-03T15:56:57;37.30;68.90
19555;DHT22;9924;50.828;6.440;2022-08-03T15:59:23;37.40;69.00
19555;DHT22;9924;50.828;6.440;2022-08-03T16:01:49;37.70;69.00
19555;DHT22;9924;50.828;6.440;2022-08-03T16:04:15;37.60;69.10
19555;DHT22;9924;50.828;6.440;2022-08-03T16:06:40;36.90;69.90
19555;DHT22;9924;50.828;6.440;2022-08-03T16:09:07;36.50;71.00
19555;DHT22;9924;50.828;6.440;2022-08-03T16:11:33;36.30;70.70
19555;DHT22;9924;50.828;6.440;2022-08-03T16:13:59;36.20;70.80
19555;DHT22;9924;50.828;6.440;2022-08-03T16:16:25;36.60;71.50
19555;DHT22;9924;50.828;6.440;2022-08-03T16:18:51;37.30;70.00
19555;DHT22;9924;50.828;6.440;2022-08-03T16:21:17;38.00;68.10
19555;DHT22;9924;50.828;6.440;2022-08-03T16:23:42;38.30;66.50
19555;DHT22;9924;50.828;6.440;2022-08-03T16:26:10;38.20;67.90
19555;DHT22;9924;50.828;6.440;2022-08-03T16:28:36;37.30;68.60
19555;DHT22;9924;50.828;6.440;2022-08-03T16:31:04;37.00;70.40
19555;DHT22;9924;50.828;6.440;2022-08-03T16:33:31;36.80;69.90
19555;DHT22;9924;50.828;6.440;2022-08-03T16:35:57;36.30;70.50
19555;DHT22;9924;50.828;6.440;2022-08-03T16:38:23;35.80;71.20
19555;DHT22;9924;50.828;6.440;2022-08-03T16:40:49;35.40;71.00
19555;DHT22;9924;50.828;6.440;2022-08-03T16:43:18;35.70;70.30
19555;DHT22;9924;50.828;6.440;2022-08-03T16:45:44;35.90;69.90
19555;DHT22;9924;50.828;6.440;2022-08-03T16:48:10;35.90;69.40
19555;DHT22;9924;50.828;6.440;2022-08-03T16:50:36;35.90;70.00
19555;DHT22;9924;50.828;6.440;2022-08-03T16:53:09;36.00;69.80
19555;DHT22;9924;50.828;6.440;2022-08-03T16:55:38;36.30;69.70
19555;DHT22;9924;50.828;6.440;2022-08-03T16:58:04;36.50;71.00
19555;DHT22;9924;50.828;6.440;2022-08-03T17:00:33;36.30;69.40
19555;DHT22;9924;50.828;6.440;2022-08-03T17:03:00;35.60;70.10
19555;DHT22;9924;50.828;6.440;2022-08-03T17:05:27;35.10;71.90
19555;DHT22;9924;50.828;6.440;2022-08-03T17:07:54;34.60;72.80
19555;DHT22;9924;50.828;6.440;2022-08-03T17:10:20;35.00;73.60
19555;DHT22;9924;50.828;6.440;2022-08-03T17:12:46;35.60;72.10
19555;DHT22;9924;50.828;6.440;2022-08-03T17:15:13;36.40;69.80
19555;DHT22;9924;50.828;6.440;2022-08-03T17:17:42;37.00;68.80
19555;DHT22;9924;50.828;6.440;2022-08-03T17:20:12;37.20;68.00
19555;DHT22;9924;50.828;6.440;2022-08-03T17:22:49;37.30;68.50
19555;DHT22;9924;50.828;6.440;2022-08-03T17:25:18;37.50;67.90
19555;DHT22;9924;50.828;6.440;2022-08-03T17:27:44;37.40;66.80
19555;DHT22;9924;50.828;6.440;2022-08-03T17:30:12;37.20;67.30
19555;DHT22;9924;50.828;6.440;2022-08-03T17:32:41;37.20;67.00
19555;DHT22;9924;50.828;6.440;2022-08-03T17:35:08;37.00;67.90
19555;DHT22;9924;50.828;6.440;2022-08-03T17:37:34;36.60;67.70
19555;DHT22;9924;50.828;6.440;2022-08-03T17:40:01;36.20;68.90
19555;DHT22;9924;50.828;6.440;2022-08-03T17:42:27;36.10;69.10
19555;DHT22;9924;50.828;6.440;2022-08-03T17:44:54;36.10;68.90
19555;DHT22;9924;50.828;6.440;2022-08-03T17:47:21;35.90;68.70
19555;DHT22;9924;50.828;6.440;2022-08-03T17:49:47;35.80;68.50
19555;DHT22;9924;50.828;6.440;2022-08-03T17:55:02;35.50;70.00
19555;DHT22;9924;50.828;6.440;2022-08-03T18:00:09;34.80;70.40
19555;DHT22;9924;50.828;6.440;2022-08-03T18:05:48;33.70;73.10
19555;DHT22;9924;50.828;6.440;2022-08-03T18:10:55;32.90;75.00
19555;DHT22;9924;50.828;6.440;2022-08-03T18:13:23;32.60;75.40
19555;DHT22;9924;50.828;6.440;2022-08-03T18:16:03;32.30;76.70
19555;DHT22;9924;50.828;6.440;2022-08-03T18:18:37;32.00;77.50
19555;DHT22;9924;50.828;6.440;2022-08-03T18:21:06;31.80;77.80
19555;DHT22;9924;50.828;6.440;2022-08-03T18:23:33;31.70;78.90
19555;DHT22;9924;50.828;6.440;2022-08-03T18:26:01;31.50;78.80
19555;DHT22;9924;50.828;6.440;2022-08-03T18:28:28;31.40;79.20
19555;DHT22;9924;50.828;6.440;2022-08-03T18:30:54;31.30;80.60
19555;DHT22;9924;50.828;6.440;2022-08-03T18:33:21;31.20;80.60
19555;DHT22;9924;50.828;6.440;2022-08-03T18:35:48;31.10;80.40
19555;DHT22;9924;50.828;6.440;2022-08-03T18:38:15;31.10;81.50
19555;DHT22;9924;50.828;6.440;2022-08-03T18:40:42;30.90;81.00
19555;DHT22;9924;50.828;6.440;2022-08-03T18:43:08;30.80;81.40
19555;DHT22;9924;50.828;6.440;2022-08-03T18:45:41;30.80;82.20
19555;DHT22;9924;50.828;6.440;2022-08-03T18:48:17;30.70;83.00
19555;DHT22;9924;50.828;6.440;2022-08-03T18:51:00;30.60;83.00
19555;DHT22;9924;50.828;6.440;2022-08-03T18:59:37;30.30;85.10
19555;DHT22;9924;50.828;6.440;2022-08-03T19:02:06;30.20;85.10
19555;DHT22;9924;50.828;6.440;2022-08-03T19:04:45;30.10;86.00
19555;DHT22;9924;50.828;6.440;2022-08-03T19:07:16;30.00;86.70
19555;DHT22;9924;50.828;6.440;2022-08-03T19:09:58;29.90;88.10
19555;DHT22;9924;50.828;6.440;2022-08-03T19:12:49;29.80;88.10
19555;DHT22;9924;50.828;6.440;2022-08-03T19:15:18;29.70;88.90
19555;DHT22;9924;50.828;6.440;2022-08-03T19:17:46;29.50;89.90
19555;DHT22;9924;50.828;6.440;2022-08-03T19:20:18;29.40;90.70
19555;DHT22;9924;50.828;6.440;2022-08-03T19:22:44;29.20;91.60
19555;DHT22;9924;50.828;6.440;2022-08-03T19:25:11;29.10;91.60
19555;DHT22;9924;50.828;6.440;2022-08-03T19:27:38;28.90;91.60
19555;DHT22;9924;50.828;6.440;2022-08-03T19:30:06;28.70;92.10
19555;DHT22;9924;50.828;6.440;2022-08-03T19:32:34;28.60;93.30
19555;DHT22;9924;50.828;6.440;2022-08-03T19:35:04;28.50;93.50
19555;DHT22;9924;50.828;6.440;2022-08-03T19:37:30;28.40;93.50
19555;DHT22;9924;50.828;6.440;2022-08-03T19:39:57;28.30;93.60
19555;DHT22;9924;50.828;6.440;2022-08-03T19:42:29;28.20;94.00
19555;DHT22;9924;50.828;6.440;2022-08-03T19:45:18;28.00;94.40
19555;DHT22;9924;50.828;6.440;2022-08-03T19:47:57;27.80;95.30
19555;DHT22;9924;50.828;6.440;2022-08-03T19:50:30;27.60;95.50
19555;DHT22;9924;50.828;6.440;2022-08-03T19:52:57;27.50;95.80
19555;DHT22;9924;50.828;6.440;2022-08-03T19:55:27;27.20;97.40
19555;DHT22;9924;50.828;6.440;2022-08-03T19:57:55;27.10;96.70
19555;DHT22;9924;50.828;6.440;2022-08-03T20:00:21;26.90;97.20
19555;DHT22;9924;50.828;6.440;2022-08-03T20:02:49;26.80;97.80
19555;DHT22;9924;50.828;6.440;2022-08-03T20:05:16;26.70;97.70
19555;DHT22;9924;50.828;6.440;2022-08-03T20:07:42;26.60;97.20
19555;DHT22;9924;50.828;6.440;2022-08-03T20:10:09;26.50;97.80
19555;DHT22;9924;50.828;6.440;2022-08-03T20:12:37;26.40;97.40
19555;DHT22;9924;50.828;6.440;2022-08-03T20:15:04;26.10;98.90
19555;DHT22;9924;50.828;6.440;2022-08-03T20:17:30;26.00;99.90
19555;DHT22;9924;50.828;6.440;2022-08-03T20:19:56;25.90;99.90
19555;DHT22;9924;50.828;6.440;2022-08-03T20:22:28;25.90;99.90
19555;DHT22;9924;50.828;6.440;2022-08-03T20:24:55;25.80;99.90
19555;DHT22;9924;50.828;6.440;2022-08-03T20:27:22;25.80;99.90
19555;DHT22;9924;50.828;6.440;2022-08-03T20:29:50;25.70;99.90
19555;DHT22;9924;50.828;6.440;2022-08-03T20:32:17;25.70;99.90